Manheim, West Virginia
Current Conditions -  °F | °C
As of 3:51 PM on Friday 28 Nov 2014 (Local Time) from KEKN Reporting Station
Overcast Overcast  
Wind Chill: 19°   Ceiling: 2900
Heat Index: 25°   Visibility: 10mi
Dew Point: 16°   Wind: 5mph
Humidity: 69%   Direction: 230°SW
Pressure: 30.23"   Gusts: NA
Location:  39.2234°N, 79.6204°W
Report Text: KEKN 282051Z AUTO 23004KT 10SM OVC029 M04/M09 A3023 RMK AO2 SLP268 60000 T10391089 56011 TSNO
Loading
Personal Weather Stations






























Interactive Weather Map New forecast layout! Learn more

10-Day Weather Forecast

Advertisements
Track Severe Weather on mobile